RJOF weather

Hofu Airport
Yamaguchi Prefecture, Japan

Public forecast

Using degrees Celsius for public forecast. Weather courtesy of forecast.io.

Current aviation weather report (METAR) for Hofu Airport

Report is more than 6 hours old.

Retrieved 2019/10/20 09:49 UTC (20 hours ago):

RJOF 200949Z 35004KT 9999 FEW040 SCT180 BKN/// 19/15 Q1018 RMK 2CU040 3AC180 A3006

Closest aviation forecast (TAF) to Hofu Airport

Closest forecast is Kitakyūshū Airport, 28.0 nm (51.9 km) WSW. Retrieved 2019/10/21 06:30 UTC (0 seconds ago):

TAF TAF RJFR 210507Z 2106/2212 01010KT 9999 FEW020 SCT040